Time;durP1;ratioP1;P1;durP2;ratioP2;P2;SDS_P1;SDS_P2;PMS_P1;PMS_P2;Temp;Humidity;BMP_temperature;BMP_pressure;BME280_temperature;BME280_humidity;BME280_pressure;Samples;Min_cycle;Max_cycle;Signal;HPM_P1;HPM_P2
2022/10/19 00:01:06;;;;;;;8.73;1.58;;;7.90;99.90;;;;;;5025392;28;20093;-77
2022/10/19 00:03:33;;;;;;;4.35;1.48;;;8.00;99.90;;;;;;5021010;28;20025;-77
2022/10/19 00:05:59;;;;;;;7.07;1.63;;;8.00;99.90;;;;;;5025529;28;20029;-77
2022/10/19 00:08:25;;;;;;;10.40;1.73;;;8.00;99.90;;;;;;5022684;28;20025;-77
2022/10/19 00:10:50;;;;;;;4.30;1.33;;;8.00;99.90;;;;;;5017068;28;20034;-77
2022/10/19 00:13:16;;;;;;;7.85;1.40;;;8.00;99.90;;;;;;5012607;28;20018;-77
2022/10/19 00:15:42;;;;;;;6.40;1.67;;;7.90;99.90;;;;;;4995095;28;20097;-76
2022/10/19 00:18:08;;;;;;;4.63;1.27;;;8.00;99.90;;;;;;5013701;28;20030;-77
2022/10/19 00:20:35;;;;;;;5.75;1.63;;;8.00;99.90;;;;;;5026751;28;20109;-77
2022/10/19 00:23:01;;;;;;;2.80;1.25;;;8.00;99.90;;;;;;5012837;28;20026;-77
2022/10/19 00:25:26;;;;;;;6.82;1.40;;;8.10;99.90;;;;;;5012518;28;20080;-77
2022/10/19 00:27:52;;;;;;;5.63;1.40;;;8.20;99.90;;;;;;5024012;28;20029;-77
2022/10/19 00:30:17;;;;;;;4.55;1.33;;;8.40;99.90;;;;;;5014071;28;20030;-77
2022/10/19 00:32:43;;;;;;;7.97;1.58;;;8.40;99.90;;;;;;5012675;28;20101;-77
2022/10/19 00:35:08;;;;;;;3.92;1.48;;;8.50;99.90;;;;;;4999694;28;20026;-77
2022/10/19 00:37:34;;;;;;;2.42;1.27;;;8.60;99.90;;;;;;5024323;28;20493;-77
2022/10/19 00:40:00;;;;;;;6.07;1.42;;;8.50;99.90;;;;;;5022947;28;20021;-77
2022/10/19 00:42:25;;;;;;;3.72;1.40;;;8.60;99.90;;;;;;5018778;28;20014;-77
2022/10/19 00:44:51;;;;;;;4.90;1.90;;;8.60;99.90;;;;;;5016585;28;20525;-77
2022/10/19 00:47:22;;;;;;;2.88;1.13;;;8.70;99.90;;;;;;5020901;28;20496;-77
2022/10/19 00:49:47;;;;;;;3.38;1.38;;;8.70;99.90;;;;;;5024534;28;20022;-77
2022/10/19 00:52:16;;;;;;;6.93;1.20;;;8.80;99.90;;;;;;5029278;28;20362;-77
2022/10/19 00:54:44;;;;;;;5.78;1.50;;;9.00;99.90;;;;;;5028373;28;20017;-77
2022/10/19 00:57:10;;;;;;;8.60;1.27;;;9.00;99.90;;;;;;5035604;28;20152;-77
2022/10/19 00:59:38;;;;;;;5.20;1.25;;;9.00;99.90;;;;;;5035577;28;20096;-77
2022/10/19 01:02:05;;;;;;;4.38;1.17;;;9.20;99.90;;;;;;5029356;28;20018;-77
2022/10/19 01:04:34;;;;;;;8.32;1.55;;;9.20;99.90;;;;;;5016384;28;20026;-77
2022/10/19 01:07:02;;;;;;;6.70;1.35;;;9.40;99.90;;;;;;5010769;28;20035;-77
2022/10/19 01:09:27;;;;;;;4.15;1.10;;;9.40;99.90;;;;;;5034984;28;20029;-77
2022/10/19 01:11:59;;;;;;;7.20;1.48;;;9.50;99.90;;;;;;5028588;28;20109;-77
2022/10/19 01:15:02;;;;;;;5.75;1.00;;;9.60;99.90;;;;;;5015845;28;20390;-77
2022/10/19 01:17:55;;;;;;;3.85;0.88;;;9.60;99.90;;;;;;5007780;28;20030;-77
2022/10/19 01:20:44;;;;;;;6.90;1.00;;;9.70;99.90;;;;;;5013091;28;20021;-77
2022/10/19 01:23:16;;;;;;;3.75;0.85;;;9.60;99.90;;;;;;5021980;28;20017;-77
2022/10/19 01:25:56;;;;;;;3.35;0.93;;;9.60;99.90;;;;;;5022839;28;20050;-77
2022/10/19 01:28:43;;;;;;;5.35;1.02;;;9.60;99.90;;;;;;5011698;28;20025;-77
2022/10/19 01:31:22;;;;;;;2.42;0.70;;;9.60;99.90;;;;;;5021360;28;20057;-77
2022/10/19 01:34:07;;;;;;;4.68;0.88;;;9.50;99.90;;;;;;5017645;28;20117;-77
2022/10/19 01:36:35;;;;;;;5.75;1.27;;;9.40;99.90;;;;;;5012757;28;20049;-77
2022/10/19 01:39:42;;;;;;;4.75;1.05;;;9.30;99.90;;;;;;5034821;28;20022;-77
2022/10/19 01:42:25;;;;;;;2.28;0.88;;;9.20;99.90;;;;;;5006272;28;20099;-77
2022/10/19 01:45:04;;;;;;;5.80;1.52;;;9.30;99.90;;;;;;5025492;28;20029;-76
2022/10/19 01:47:41;;;;;;;5.38;0.90;;;9.30;99.90;;;;;;5029398;28;20367;-77
2022/10/19 01:50:17;;;;;;;5.32;1.02;;;9.30;99.90;;;;;;5015076;28;20037;-77
2022/10/19 01:52:43;;;;;;;2.67;0.70;;;9.30;99.90;;;;;;5023104;28;20033;-77
2022/10/19 01:55:12;;;;;;;2.38;0.50;;;9.20;99.90;;;;;;5021433;28;20148;-77
2022/10/19 01:57:46;;;;;;;2.75;0.73;;;9.30;99.90;;;;;;5034589;28;20033;-77
2022/10/19 02:00:15;;;;;;;2.53;0.57;;;9.30;99.90;;;;;;5034295;28;20029;-77
2022/10/19 02:02:44;;;;;;;3.35;0.90;;;9.40;99.90;;;;;;5024224;28;20026;-77
2022/10/19 02:05:12;;;;;;;4.78;0.70;;;9.60;99.90;;;;;;5014777;28;20014;-77
2022/10/19 02:07:40;;;;;;;8.45;0.80;;;9.60;99.90;;;;;;5014984;28;20113;-77
2022/10/19 02:10:06;;;;;;;4.07;0.80;;;9.60;99.90;;;;;;5028799;28;20403;-77
2022/10/19 02:12:33;;;;;;;3.00;0.65;;;9.50;99.90;;;;;;5014868;28;20098;-77
2022/10/19 02:15:04;;;;;;;6.20;0.75;;;9.50;99.90;;;;;;5014684;28;20097;-77
2022/10/19 02:17:34;;;;;;;6.43;1.15;;;9.60;99.90;;;;;;5014672;28;20092;-77
2022/10/19 02:20:00;;;;;;;4.15;0.95;;;9.50;99.90;;;;;;5014488;28;20029;-77
2022/10/19 02:22:26;;;;;;;2.90;0.70;;;9.50;99.90;;;;;;5027182;28;20381;-77
2022/10/19 02:24:51;;;;;;;5.90;1.13;;;9.50;99.90;;;;;;5033780;28;20013;-77
2022/10/19 02:27:17;;;;;;;8.68;1.00;;;9.40;99.90;;;;;;5021792;28;20038;-77
2022/10/19 02:29:44;;;;;;;4.82;1.10;;;9.40;99.90;;;;;;5033611;28;20083;-77
2022/10/19 02:32:10;;;;;;;4.95;0.80;;;9.20;99.90;;;;;;5033780;28;20109;-77
2022/10/19 02:34:38;;;;;;;6.30;0.82;;;9.00;99.90;;;;;;5033502;28;20049;-77
2022/10/19 02:37:04;;;;;;;4.13;0.80;;;8.90;99.90;;;;;;5033178;28;20056;-77
2022/10/19 02:39:30;;;;;;;3.78;0.70;;;8.70;99.90;;;;;;5021170;28;20052;-77
2022/10/19 02:42:12;;;;;;;6.07;1.13;;;8.70;99.90;;;;;;5020238;28;20057;-77
2022/10/19 02:45:06;;;;;;;5.85;0.90;;;8.80;99.90;;;;;;5012144;28;20043;-77
2022/10/19 02:47:38;;;;;;;6.03;0.80;;;8.90;99.90;;;;;;5020378;28;20591;-77
2022/10/19 02:50:06;;;;;;;5.78;0.80;;;8.90;99.90;;;;;;5020966;28;20477;-77
2022/10/19 02:52:31;;;;;;;2.97;0.75;;;8.80;99.90;;;;;;5014435;28;20109;-77
2022/10/19 02:54:57;;;;;;;4.43;0.70;;;8.80;99.90;;;;;;5014219;28;20054;-77
2022/10/19 02:57:24;;;;;;;6.22;1.00;;;8.80;99.90;;;;;;5020900;28;20022;-77
2022/10/19 02:59:50;;;;;;;4.90;0.82;;;8.80;99.90;;;;;;5032011;28;20522;-77
2022/10/19 03:02:18;;;;;;;6.93;1.02;;;8.80;99.90;;;;;;5025426;28;20355;-77
2022/10/19 03:04:44;;;;;;;2.90;0.80;;;8.80;99.90;;;;;;5013336;28;20031;-77
2022/10/19 03:07:11;;;;;;;3.45;0.80;;;8.80;99.90;;;;;;5014212;28;20026;-77
2022/10/19 03:09:37;;;;;;;2.38;0.77;;;8.80;99.90;;;;;;5014051;28;20018;-77
2022/10/19 03:12:02;;;;;;;5.53;0.90;;;8.90;99.90;;;;;;5014485;28;20029;-77
2022/10/19 03:14:28;;;;;;;4.78;0.75;;;8.90;99.90;;;;;;5026590;28;20029;-77
2022/10/19 03:16:54;;;;;;;8.10;1.20;;;9.00;99.90;;;;;;5013442;28;20037;-77
2022/10/19 03:19:19;;;;;;;4.90;1.10;;;9.00;99.90;;;;;;5013559;28;20056;-77
2022/10/19 03:21:45;;;;;;;4.10;0.68;;;9.10;99.90;;;;;;5006910;28;20032;-77
2022/10/19 03:24:11;;;;;;;2.08;0.57;;;9.20;99.90;;;;;;5032927;28;20361;-77
2022/10/19 03:26:37;;;;;;;5.80;1.23;;;9.20;99.90;;;;;;5006820;28;20087;-77
2022/10/19 03:29:03;;;;;;;6.32;0.90;;;9.30;99.90;;;;;;5032668;28;20514;-77
2022/10/19 03:31:28;;;;;;;4.72;0.95;;;9.40;99.90;;;;;;5014509;28;20040;-77
2022/10/19 03:33:54;;;;;;;4.63;1.30;;;9.30;99.90;;;;;;5032363;28;20026;-77
2022/10/19 03:36:23;;;;;;;4.78;0.80;;;9.40;99.90;;;;;;5031281;28;20118;-77
2022/10/19 03:38:50;;;;;;;5.13;1.15;;;9.40;99.90;;;;;;5032532;28;20087;-77
2022/10/19 03:41:17;;;;;;;6.72;1.33;;;9.50;99.90;;;;;;5007023;28;20017;-77
2022/10/19 03:43:42;;;;;;;6.82;0.93;;;9.40;99.90;;;;;;5019818;28;20014;-77
2022/10/19 03:46:08;;;;;;;6.40;1.30;;;9.60;99.90;;;;;;5001040;28;20440;-77
2022/10/19 03:48:34;;;;;;;4.55;1.02;;;9.60;99.90;;;;;;5013990;28;20383;-77
2022/10/19 03:51:08;;;;;;;5.00;1.23;;;9.50;99.90;;;;;;5025988;28;20080;-77
2022/10/19 03:53:34;;;;;;;6.15;1.80;;;9.50;99.90;;;;;;5013925;28;20036;-77
2022/10/19 03:56:08;;;;;;;7.25;1.02;;;9.50;99.90;;;;;;5032512;28;20168;-77
2022/10/19 03:58:36;;;;;;;4.45;0.95;;;9.50;99.90;;;;;;5019233;28;20493;-77
2022/10/19 04:01:10;;;;;;;6.40;1.00;;;9.50;99.90;;;;;;5032390;28;20028;-77
2022/10/19 04:03:37;;;;;;;7.38;1.10;;;9.50;99.90;;;;;;5028395;28;20474;-77
2022/10/19 04:06:08;;;;;;;5.25;0.98;;;9.50;99.90;;;;;;5023356;28;20102;-77
2022/10/19 04:08:34;;;;;;;7.43;0.90;;;9.50;99.90;;;;;;5027828;28;20053;-77
2022/10/19 04:11:02;;;;;;;4.15;0.95;;;9.40;99.90;;;;;;5023230;28;20021;-77
2022/10/19 04:13:28;;;;;;;5.95;1.10;;;9.40;99.90;;;;;;5014196;28;20065;-77
2022/10/19 04:15:54;;;;;;;7.85;1.20;;;9.30;99.90;;;;;;5024381;28;20060;-77
2022/10/19 04:18:19;;;;;;;7.90;1.33;;;9.20;99.90;;;;;;5027084;28;20053;-77
2022/10/19 04:20:45;;;;;;;8.57;1.38;;;9.10;99.90;;;;;;5012832;28;20098;-77
2022/10/19 04:23:10;;;;;;;9.07;1.60;;;9.00;99.90;;;;;;5012707;28;20026;-77
2022/10/19 04:25:36;;;;;;;10.20;1.60;;;9.00;99.90;;;;;;5024149;28;20083;-77
2022/10/19 04:28:02;;;;;;;10.10;1.20;;;8.90;99.90;;;;;;5013958;28;20492;-77
2022/10/19 04:30:27;;;;;;;7.88;1.75;;;9.00;99.90;;;;;;5023987;28;20018;-77
2022/10/19 04:32:53;;;;;;;8.88;1.38;;;9.10;99.90;;;;;;5031425;28;20100;-77
2022/10/19 04:35:18;;;;;;;4.85;1.20;;;9.20;99.90;;;;;;5031873;28;20732;-77
2022/10/19 04:37:44;;;;;;;7.88;1.20;;;9.20;99.90;;;;;;5031525;28;20496;-77
2022/10/19 04:40:10;;;;;;;7.68;1.30;;;9.20;99.90;;;;;;5032017;28;20048;-77
2022/10/19 04:42:35;;;;;;;4.13;1.08;;;9.30;99.90;;;;;;5014079;28;20101;-77
2022/10/19 04:45:01;;;;;;;7.22;1.13;;;9.30;99.90;;;;;;5012777;28;20109;-77
2022/10/19 04:47:28;;;;;;;4.97;1.40;;;9.30;99.90;;;;;;5017366;28;20068;-77
2022/10/19 04:49:54;;;;;;;6.47;1.08;;;9.30;99.90;;;;;;5020366;28;20026;-77
2022/10/19 04:52:19;;;;;;;5.53;1.10;;;9.20;99.90;;;;;;5029896;28;20013;-77
2022/10/19 04:54:45;;;;;;;3.40;1.00;;;9.20;99.90;;;;;;5031458;28;20032;-77
2022/10/19 04:57:11;;;;;;;5.35;1.00;;;9.10;99.90;;;;;;5031324;28;20033;-77
2022/10/19 04:59:36;;;;;;;9.43;1.20;;;9.00;99.90;;;;;;5020508;28;20038;-77
2022/10/19 05:02:02;;;;;;;7.85;0.98;;;9.00;99.90;;;;;;5025287;28;20052;-77
2022/10/19 05:04:27;;;;;;;6.90;1.10;;;9.00;99.90;;;;;;5023861;28;20021;-77
2022/10/19 05:06:53;;;;;;;4.43;1.25;;;9.00;99.90;;;;;;5013933;28;20053;-77
2022/10/19 05:09:18;;;;;;;6.97;1.40;;;9.10;99.90;;;;;;5012092;28;20026;-77
2022/10/19 05:11:44;;;;;;;3.58;1.10;;;9.10;99.90;;;;;;5028031;28;20100;-77
2022/10/19 05:14:09;;;;;;;8.35;1.30;;;9.20;99.90;;;;;;5003601;28;20057;-77
2022/10/19 05:16:35;;;;;;;7.93;1.55;;;9.20;99.90;;;;;;4998437;28;20040;-77
2022/10/19 05:19:00;;;;;;;8.23;1.20;;;9.10;99.90;;;;;;5021153;28;20022;-76
2022/10/19 05:21:27;;;;;;;6.35;1.08;;;9.00;99.90;;;;;;5012021;28;20025;-77
2022/10/19 05:23:54;;;;;;;12.55;2.22;;;8.90;99.90;;;;;;5012224;28;20109;-77
2022/10/19 05:26:22;;;;;;;7.78;1.25;;;8.80;99.90;;;;;;5016515;28;20025;-79
2022/10/19 05:28:48;;;;;;;7.68;1.40;;;8.80;99.90;;;;;;5035256;28;20036;-77
2022/10/19 05:31:19;;;;;;;8.70;1.17;;;8.80;99.90;;;;;;5030550;28;20026;-77
2022/10/19 05:33:45;;;;;;;5.40;1.40;;;8.70;99.90;;;;;;5015761;28;20470;-77
2022/10/19 05:36:24;;;;;;;5.57;1.40;;;8.70;99.90;;;;;;5015090;28;20069;-77
2022/10/19 05:38:52;;;;;;;9.55;1.23;;;8.70;99.90;;;;;;4997884;28;20100;-77
2022/10/19 05:41:18;;;;;;;7.03;1.60;;;8.80;99.90;;;;;;5034822;28;20465;-77
2022/10/19 05:43:45;;;;;;;5.30;1.05;;;8.80;99.90;;;;;;5033852;28;20029;-77
2022/10/19 05:46:16;;;;;;;7.30;1.45;;;8.80;99.90;;;;;;5034475;28;20025;-77
2022/10/19 05:48:42;;;;;;;8.35;1.98;;;8.80;99.90;;;;;;5021181;28;20036;-77
2022/10/19 05:51:11;;;;;;;8.73;1.20;;;8.80;99.90;;;;;;5016310;28;20014;-77
2022/10/19 05:53:37;;;;;;;5.63;1.02;;;8.80;99.90;;;;;;5029549;28;20025;-77
2022/10/19 05:56:05;;;;;;;10.95;1.98;;;8.90;99.90;;;;;;5025574;28;20036;-77
2022/10/19 05:58:31;;;;;;;6.05;0.95;;;8.90;99.90;;;;;;5029802;28;20113;-77
2022/10/19 06:00:58;;;;;;;4.57;1.35;;;8.90;99.90;;;;;;5034637;28;20092;-77
2022/10/19 06:03:24;;;;;;;4.97;1.20;;;8.90;99.90;;;;;;5019628;28;20056;-77
2022/10/19 06:05:51;;;;;;;4.75;1.85;;;8.90;99.90;;;;;;5024570;28;20116;-77
2022/10/19 06:08:18;;;;;;;8.75;1.58;;;9.10;99.90;;;;;;5031082;28;20389;-77
2022/10/19 06:10:45;;;;;;;6.90;1.65;;;9.00;99.90;;;;;;5032038;28;20041;-77
2022/10/19 06:13:13;;;;;;;9.25;1.30;;;9.10;99.90;;;;;;5031529;28;20931;-77
2022/10/19 06:15:39;;;;;;;8.30;1.40;;;9.00;99.90;;;;;;5014728;28;20505;-77
2022/10/19 06:18:10;;;;;;;4.30;1.10;;;9.00;99.90;;;;;;5014952;28;20052;-76
2022/10/19 06:20:36;;;;;;;6.75;1.40;;;9.00;99.90;;;;;;5014773;28;20065;-77
2022/10/19 06:23:02;;;;;;;13.43;1.60;;;9.00;99.90;;;;;;5014532;28;20025;-77
2022/10/19 06:25:29;;;;;;;12.32;1.45;;;9.00;99.90;;;;;;5014508;28;20026;-76
2022/10/19 06:27:55;;;;;;;7.03;1.45;;;8.90;99.90;;;;;;5027411;28;20014;-77
2022/10/19 06:30:20;;;;;;;7.75;1.20;;;8.90;99.90;;;;;;5014590;28;20072;-77
2022/10/19 06:32:46;;;;;;;9.20;1.60;;;9.00;99.90;;;;;;5014627;28;20373;-79
2022/10/19 06:35:11;;;;;;;3.17;1.23;;;9.00;99.90;;;;;;5006992;28;20080;-77
2022/10/19 06:37:37;;;;;;;6.88;1.30;;;9.20;99.90;;;;;;5033535;28;20029;-77
2022/10/19 06:40:03;;;;;;;9.07;0.98;;;9.30;99.90;;;;;;5006108;28;20026;-76
2022/10/19 06:42:28;;;;;;;6.57;1.83;;;9.50;98.90;;;;;;5014364;28;20022;-77
2022/10/19 06:44:54;;;;;;;4.65;1.20;;;9.50;97.50;;;;;;5024575;28;20101;-77
2022/10/19 06:47:20;;;;;;;6.05;1.20;;;9.60;96.40;;;;;;5017002;28;20030;-77
2022/10/19 06:49:45;;;;;;;8.48;1.60;;;9.70;94.90;;;;;;4996594;28;20113;-77
2022/10/19 06:52:11;;;;;;;6.35;1.00;;;9.80;92.10;;;;;;5030761;28;20128;-77
2022/10/19 06:54:36;;;;;;;6.88;1.65;;;9.80;91.00;;;;;;5023497;28;20085;-77
2022/10/19 06:57:02;;;;;;;6.10;1.45;;;9.90;91.10;;;;;;5013767;28;20037;-77
2022/10/19 06:59:27;;;;;;;6.60;1.50;;;10.00;88.00;;;;;;5013873;28;20018;-77
2022/10/19 07:01:53;;;;;;;6.30;1.27;;;10.00;88.40;;;;;;5016908;28;20373;-77
2022/10/19 07:04:18;;;;;;;3.17;0.95;;;10.10;86.20;;;;;;5033706;28;20021;-77
2022/10/19 07:06:44;;;;;;;5.07;1.20;;;10.30;83.50;;;;;;5029862;28;20057;-77
2022/10/19 07:09:09;;;;;;;9.23;1.92;;;10.40;74.70;;;;;;5013862;28;20037;-77
2022/10/19 07:11:35;;;;;;;6.53;2.13;;;10.50;74.00;;;;;;5025666;28;20033;-77
2022/10/19 07:14:00;;;;;;;7.35;1.20;;;10.60;74.40;;;;;;4996294;28;20018;-77
2022/10/19 07:16:26;;;;;;;9.30;1.15;;;10.70;69.10;;;;;;5013532;28;20014;-77
2022/10/19 07:18:52;;;;;;;5.55;1.13;;;10.80;65.70;;;;;;5022890;28;20018;-77
2022/10/19 07:21:19;;;;;;;7.75;1.42;;;10.80;64.50;;;;;;5032392;28;20029;-77
2022/10/19 07:23:46;;;;;;;7.95;1.08;;;10.90;60.00;;;;;;5023676;28;20101;-77
2022/10/19 07:26:15;;;;;;;6.85;0.82;;;11.00;58.70;;;;;;5017715;28;20059;-77
2022/10/19 07:28:43;;;;;;;7.53;1.13;;;11.20;57.90;;;;;;5032554;28;20030;-77
2022/10/19 07:31:11;;;;;;;3.83;0.80;;;11.30;52.00;;;;;;5028081;28;20462;-78
2022/10/19 07:33:37;;;;;;;9.43;1.30;;;11.50;44.80;;;;;;5025039;28;20017;-77
2022/10/19 07:36:05;;;;;;;7.07;0.98;;;11.70;37.90;;;;;;5031492;28;20055;-77
2022/10/19 07:38:31;;;;;;;2.20;0.70;;;12.00;29.10;;;;;;5032119;28;20025;-78
2022/10/19 07:41:03;;;;;;;9.63;1.30;;;12.00;21.80;;;;;;5025855;28;20014;-78
2022/10/19 07:43:28;;;;;;;5.93;1.08;;;12.10;18.20;;;;;;5024926;28;20053;-78
2022/10/19 07:45:59;;;;;;;13.02;1.67;;;12.20;16.90;;;;;;5030173;28;20039;-78
2022/10/19 07:48:24;;;;;;;4.72;0.68;;;12.40;20.90;;;;;;5030864;28;20028;-78
2022/10/19 07:50:50;;;;;;;6.30;0.90;;;12.40;18.20;;;;;;5031754;28;20092;-78
2022/10/19 07:53:15;;;;;;;6.32;1.00;;;12.50;16.50;;;;;;5031286;28;20439;-77
2022/10/19 07:55:41;;;;;;;6.05;0.88;;;12.80;14.80;;;;;;5029657;28;20060;-78
2022/10/19 07:58:06;;;;;;;10.30;0.95;;;13.10;10.10;;;;;;5020574;28;20030;-78
2022/10/19 08:00:32;;;;;;;7.47;0.98;;;13.00;8.50;;;;;;5019935;28;20017;-78
2022/10/19 08:02:58;;;;;;;7.03;1.42;;;13.20;7.70;;;;;;5020419;28;20026;-78
2022/10/19 08:05:23;;;;;;;11.60;1.45;;;13.30;4.80;;;;;;5013604;28;20018;-78
2022/10/19 08:07:49;;;;;;;5.20;0.70;;;13.30;6.20;;;;;;5014082;28;20045;-78
2022/10/19 08:10:14;;;;;;;6.72;1.08;;;13.30;2.30;;;;;;5015435;28;20500;-78
2022/10/19 08:12:40;;;;;;;11.57;1.15;;;14.40;1.00;;;;;;5024257;28;20116;-78
2022/10/19 08:15:06;;;;;;;6.18;0.95;;;14.80;1.00;;;;;;5031777;28;20366;-77
2022/10/19 08:17:35;;;;;;;8.15;1.17;;;14.60;1.00;;;;;;5020250;28;20026;-78
2022/10/19 08:20:01;;;;;;;6.20;1.17;;;14.70;1.00;;;;;;5013051;28;20488;-78
2022/10/19 08:22:27;;;;;;;5.55;0.93;;;15.10;1.00;;;;;;5024847;28;20033;-78
2022/10/19 08:24:52;;;;;;;7.30;1.10;;;15.10;1.00;;;;;;5031751;28;20013;-77
2022/10/19 08:27:18;;;;;;;5.47;0.85;;;15.70;1.00;;;;;;5020103;28;20457;-78
2022/10/19 08:29:43;;;;;;;6.75;1.17;;;16.00;1.00;;;;;;5018135;28;20548;-78
2022/10/19 08:32:09;;;;;;;8.90;1.00;;;14.90;1.00;;;;;;5020330;28;20504;-78
2022/10/19 08:34:34;;;;;;;4.00;0.90;;;15.00;1.00;;;;;;5017485;28;20462;-78
2022/10/19 08:37:01;;;;;;;5.20;0.80;;;14.70;1.00;;;;;;5014304;28;20132;-78
2022/10/19 08:39:27;;;;;;;5.93;0.90;;;14.50;1.00;;;;;;5013616;28;20065;-78
2022/10/19 08:42:15;;;;;;;10.18;1.13;;;14.90;1.00;;;;;;5012421;28;20054;-78
2022/10/19 08:45:14;;;;;;;6.25;0.95;;;14.90;1.00;;;;;;5001621;28;20029;-78
2022/10/19 08:48:21;;;;;;;6.88;0.90;;;14.60;1.00;;;;;;5013646;28;20033;-78
2022/10/19 08:50:47;;;;;;;7.72;0.73;;;14.50;1.00;;;;;;5026007;28;20049;-78
2022/10/19 08:53:39;;;;;;;4.53;0.90;;;13.80;1.00;;;;;;5024499;28;20048;-78
2022/10/19 08:56:26;;;;;;;8.27;1.00;;;13.70;1.00;;;;;;5010851;28;20021;-78
2022/10/19 08:59:04;;;;;;;7.03;1.25;;;13.70;1.00;;;;;;5018335;28;20026;-78
2022/10/19 09:01:33;;;;;;;5.10;0.70;;;14.40;1.00;;;;;;5032233;28;20470;-78
2022/10/19 09:04:05;;;;;;;6.75;1.33;;;14.70;1.00;;;;;;5010855;28;20025;-78
2022/10/19 09:06:47;;;;;;;9.65;1.27;;;14.40;1.00;;;;;;5017380;28;20088;-78
2022/10/19 09:09:14;;;;;;;6.47;0.93;;;14.50;1.00;;;;;;5035425;28;20045;-78
2022/10/19 09:11:46;;;;;;;6.68;0.98;;;15.10;1.00;;;;;;5033664;28;20104;-78
2022/10/19 09:14:35;;;;;;;4.25;0.75;;;14.80;1.00;;;;;;5024628;28;20065;-78
2022/10/19 09:17:14;;;;;;;4.90;1.02;;;14.70;1.00;;;;;;4973590;28;20054;-78
2022/10/19 09:19:40;;;;;;;3.50;0.63;;;14.60;1.00;;;;;;5016261;28;20022;-78
2022/10/19 09:22:18;;;;;;;7.25;0.60;;;15.20;1.00;;;;;;5016086;28;20386;-78
2022/10/19 09:24:53;;;;;;;4.15;0.60;;;15.20;1.00;;;;;;5028881;28;20022;-78
2022/10/19 09:27:23;;;;;;;3.08;0.50;;;15.20;1.00;;;;;;5028415;28;20057;-78
2022/10/19 09:29:57;;;;;;;3.47;1.13;;;14.50;1.00;;;;;;5034912;28;20496;-78
2022/10/19 09:32:32;;;;;;;7.15;1.13;;;14.60;1.00;;;;;;5016159;28;20048;-78
2022/10/19 09:35:01;;;;;;;3.60;0.93;;;15.00;1.00;;;;;;5024453;28;20025;-78
2022/10/19 09:37:28;;;;;;;7.10;0.88;;;15.80;1.00;;;;;;5019478;28;20115;-78
2022/10/19 09:39:55;;;;;;;4.90;0.82;;;18.30;1.00;;;;;;5024942;28;20132;-78
2022/10/19 09:42:29;;;;;;;7.25;1.25;;;17.20;1.00;;;;;;5034424;28;20351;-78
2022/10/19 09:44:55;;;;;;;7.95;0.80;;;15.80;1.00;;;;;;5034585;28;20019;-78
2022/10/19 09:47:36;;;;;;;5.18;1.02;;;15.80;1.00;;;;;;5021276;28;20022;-78
2022/10/19 09:50:25;;;;;;;6.18;0.68;;;14.70;1.00;;;;;;5022628;28;20026;-78
2022/10/19 09:52:55;;;;;;;7.47;0.70;;;15.60;1.00;;;;;;5005308;28;20022;-78
2022/10/19 09:55:34;;;;;;;9.27;0.90;;;16.90;1.00;;;;;;5018815;28;20251;-78
2022/10/19 09:58:14;;;;;;;4.65;0.77;;;17.40;1.00;;;;;;5022966;28;20048;-78
2022/10/19 10:00:53;;;;;;;2.80;0.60;;;16.00;1.00;;;;;;5021547;28;20032;-78
2022/10/19 10:03:42;;;;;;;10.60;0.90;;;15.40;1.00;;;;;;5032311;28;20029;-78
2022/10/19 10:06:16;;;;;;;5.53;0.77;;;15.40;1.00;;;;;;5015859;28;20025;-78
2022/10/19 10:08:47;;;;;;;3.40;0.75;;;14.40;1.00;;;;;;5033780;28;20040;-78
2022/10/19 10:11:14;;;;;;;5.80;0.95;;;15.10;1.00;;;;;;5014968;28;20076;-78
2022/10/19 10:13:49;;;;;;;5.15;0.60;;;15.20;1.00;;;;;;5001650;28;20396;-78
2022/10/19 10:16:17;;;;;;;4.38;0.70;;;15.50;1.00;;;;;;5029011;28;20484;-78
2022/10/19 10:18:58;;;;;;;3.13;0.90;;;15.40;1.00;;;;;;5026402;28;20025;-78
2022/10/19 10:21:27;;;;;;;4.93;0.80;;;15.50;1.00;;;;;;5031284;28;20026;-78
2022/10/19 10:24:17;;;;;;;5.38;0.70;;;14.80;1.00;;;;;;5016227;28;20021;-78
2022/10/19 10:26:49;;;;;;;3.70;0.68;;;14.80;1.00;;;;;;5034011;28;20500;-78
2022/10/19 10:29:24;;;;;;;4.03;0.68;;;15.20;1.00;;;;;;5030369;28;20041;-78
2022/10/19 10:31:54;;;;;;;5.50;0.68;;;15.60;1.00;;;;;;5005291;28;20018;-79
2022/10/19 10:34:37;;;;;;;5.60;0.75;;;15.90;1.00;;;;;;5018398;28;20389;-78
2022/10/19 10:37:06;;;;;;;6.53;0.77;;;15.40;1.00;;;;;;5032796;28;20512;-78
2022/10/19 10:39:39;;;;;;;5.20;1.15;;;15.20;1.00;;;;;;5033358;28;20064;-78
2022/10/19 10:42:10;;;;;;;5.93;0.90;;;14.90;1.00;;;;;;5007987;28;20030;-78
2022/10/19 10:44:36;;;;;;;6.28;0.80;;;14.90;1.00;;;;;;5033849;28;20026;-78
2022/10/19 10:47:11;;;;;;;5.82;0.70;;;15.50;1.00;;;;;;5033402;28;20033;-78
2022/10/19 10:49:41;;;;;;;5.60;1.02;;;14.30;1.00;;;;;;5025241;28;20022;-78
2022/10/19 10:52:10;;;;;;;3.75;0.70;;;14.10;1.00;;;;;;5017959;28;20122;-78
2022/10/19 10:54:37;;;;;;;4.28;0.80;;;14.70;1.00;;;;;;5033107;28;20032;-78
2022/10/19 10:57:17;;;;;;;8.32;0.90;;;14.90;1.00;;;;;;5014276;28;20420;-78
2022/10/19 11:00:11;;;;;;;3.85;0.95;;;14.90;1.00;;;;;;5032587;28;20392;-78
2022/10/19 11:02:53;;;;;;;2.78;0.73;;;14.80;1.00;;;;;;5025278;28;20026;-78
2022/10/19 11:05:27;;;;;;;2.53;0.70;;;15.30;1.00;;;;;;5027602;28;20393;-78
2022/10/19 11:07:59;;;;;;;6.75;1.00;;;15.20;1.00;;;;;;5014894;28;20029;-77
2022/10/19 11:10:49;;;;;;;6.00;1.17;;;15.20;1.00;;;;;;5031550;28;20029;-78
2022/10/19 11:13:40;;;;;;;7.63;1.40;;;14.90;1.00;;;;;;5033158;28;20036;-78
2022/10/19 11:16:13;;;;;;;4.32;0.90;;;15.20;1.00;;;;;;5019791;28;20437;-78
2022/10/19 11:18:49;;;;;;;5.03;0.73;;;15.80;1.00;;;;;;5025390;28;20034;-78
2022/10/19 11:21:22;;;;;;;5.55;1.00;;;15.10;1.00;;;;;;5013620;28;20022;-78
2022/10/19 11:24:05;;;;;;;7.30;1.20;;;14.70;1.00;;;;;;5013424;28;20026;-78
2022/10/19 11:27:14;;;;;;;9.60;1.40;;;14.90;1.00;;;;;;5018794;28;20067;-78
2022/10/19 11:29:48;;;;;;;3.25;0.77;;;14.30;1.00;;;;;;4991056;28;20479;-78
2022/10/19 11:32:43;;;;;;;6.50;1.05;;;14.10;1.00;;;;;;4991664;28;20031;-78
2022/10/19 11:35:29;;;;;;;6.28;1.20;;;13.80;1.00;;;;;;5004906;28;20386;-78
2022/10/19 11:38:32;;;;;;;7.70;0.73;;;14.10;1.00;;;;;;4992656;28;20041;-78
2022/10/19 11:41:09;;;;;;;6.00;0.80;;;14.50;1.00;;;;;;4992745;28;20033;-78
2022/10/19 11:43:53;;;;;;;5.00;1.20;;;14.60;1.00;;;;;;4993595;28;20498;-78
2022/10/19 11:46:40;;;;;;;5.55;0.75;;;14.90;1.00;;;;;;4985378;28;20023;-78
2022/10/19 11:49:33;;;;;;;3.47;0.63;;;15.10;1.00;;;;;;4991641;28;20422;-78
2022/10/19 11:52:08;;;;;;;4.25;0.70;;;14.20;1.00;;;;;;4992862;28;20065;-78
2022/10/19 11:54:48;;;;;;;6.25;0.98;;;14.40;1.00;;;;;;4993784;28;20029;-78
2022/10/19 11:57:15;;;;;;;6.30;0.98;;;14.50;1.00;;;;;;4993299;28;20393;-79
2022/10/19 12:00:02;;;;;;;7.95;0.85;;;15.20;1.00;;;;;;4982037;28;20031;-78
2022/10/19 12:02:52;;;;;;;4.35;0.82;;;15.00;1.00;;;;;;4970470;28;20361;-78
2022/10/19 12:05:42;;;;;;;5.35;0.60;;;15.30;1.00;;;;;;4992585;28;20025;-78
2022/10/19 12:08:42;;;;;;;4.85;0.63;;;15.00;1.00;;;;;;4991930;28;20485;-78
2022/10/19 12:11:08;;;;;;;4.88;0.77;;;14.90;1.00;;;;;;4978378;28;20049;-78
2022/10/19 12:13:46;;;;;;;2.22;0.80;;;14.80;1.00;;;;;;4987264;28;20467;-78
2022/10/19 12:16:13;;;;;;;7.03;0.90;;;14.50;1.00;;;;;;4973765;28;20114;-78
2022/10/19 12:18:45;;;;;;;7.82;1.42;;;14.80;1.00;;;;;;4981693;28;20109;-78
2022/10/19 12:21:19;;;;;;;5.68;1.00;;;14.90;1.00;;;;;;4978202;28;20031;-78
2022/10/19 12:23:45;;;;;;;3.67;1.02;;;14.90;1.00;;;;;;4983638;28;20031;-78
2022/10/19 12:26:16;;;;;;;5.63;1.00;;;14.90;1.00;;;;;;4976451;28;20014;-78
2022/10/19 12:28:47;;;;;;;3.88;0.90;;;14.90;1.00;;;;;;4984303;28;20480;-78
2022/10/19 12:31:14;;;;;;;4.50;0.70;;;15.30;1.00;;;;;;4992721;28;20026;-78
2022/10/19 12:34:08;;;;;;;6.10;0.80;;;15.00;1.00;;;;;;4981742;28;20031;-78
2022/10/19 12:37:11;;;;;;;4.85;0.90;;;14.20;1.00;;;;;;4986149;28;20041;-78
2022/10/19 12:39:49;;;;;;;4.95;1.33;;;14.30;1.00;;;;;;5011067;28;20067;-78
2022/10/19 12:42:29;;;;;;;4.28;0.65;;;14.40;1.00;;;;;;5023411;28;20654;-78
2022/10/19 12:45:01;;;;;;;3.95;0.60;;;14.30;1.00;;;;;;5035786;28;20032;-79
2022/10/19 12:47:26;;;;;;;3.58;0.65;;;14.80;1.00;;;;;;5030640;28;20018;-78
2022/10/19 12:49:54;;;;;;;3.40;0.90;;;14.70;1.00;;;;;;5028591;28;20026;-78
2022/10/19 12:52:38;;;;;;;6.18;0.65;;;14.60;1.00;;;;;;5030349;28;20036;-79
2022/10/19 12:55:25;;;;;;;6.32;1.02;;;14.80;1.00;;;;;;5017745;28;20033;-78
2022/10/19 12:58:01;;;;;;;4.75;0.90;;;14.90;1.00;;;;;;5035842;28;20030;-78
2022/10/19 13:00:32;;;;;;;4.55;0.90;;;14.60;1.00;;;;;;5022640;28;20493;-78
2022/10/19 13:03:14;;;;;;;4.35;0.95;;;14.00;1.00;;;;;;5023002;28;20022;-78
2022/10/19 13:05:40;;;;;;;6.30;1.33;;;14.20;1.00;;;;;;5016943;28;20032;-78
2022/10/19 13:08:07;;;;;;;5.72;1.15;;;14.10;1.00;;;;;;5016735;28;20018;-78
2022/10/19 13:10:33;;;;;;;7.75;1.10;;;14.00;1.00;;;;;;5023718;28;20469;-78
2022/10/19 13:12:59;;;;;;;6.63;1.00;;;13.80;1.00;;;;;;5021486;28;20041;-78
2022/10/19 13:15:37;;;;;;;7.55;1.27;;;14.10;1.00;;;;;;5016304;28;20014;-78